sensor_id;sensor_type;location;lat;lon;timestamp;P1;durP1;ratioP1;P2;durP2;ratioP2
15555;SDS011;7879;48.660;9.116;2022-12-18T00:01:22;0.75;;;0.75;;
15555;SDS011;7879;48.660;9.116;2022-12-18T00:03:49;0.60;;;0.60;;
15555;SDS011;7879;48.660;9.116;2022-12-18T00:06:18;0.80;;;0.80;;
15555;SDS011;7879;48.660;9.116;2022-12-18T00:08:45;0.60;;;0.60;;
15555;SDS011;7879;48.660;9.116;2022-12-18T00:11:14;0.50;;;0.50;;
15555;SDS011;7879;48.660;9.116;2022-12-18T00:13:46;0.68;;;0.68;;
15555;SDS011;7879;48.660;9.116;2022-12-18T00:16:14;0.50;;;0.50;;
15555;SDS011;7879;48.660;9.116;2022-12-18T00:18:46;0.80;;;0.80;;
15555;SDS011;7879;48.660;9.116;2022-12-18T00:21:18;0.60;;;0.60;;
15555;SDS011;7879;48.660;9.116;2022-12-18T00:23:46;0.80;;;0.80;;
15555;SDS011;7879;48.660;9.116;2022-12-18T00:26:20;0.60;;;0.60;;
15555;SDS011;7879;48.660;9.116;2022-12-18T00:28:50;0.80;;;0.80;;
15555;SDS011;7879;48.660;9.116;2022-12-18T00:31:19;0.60;;;0.60;;
15555;SDS011;7879;48.660;9.116;2022-12-18T00:33:48;0.80;;;0.80;;
15555;SDS011;7879;48.660;9.116;2022-12-18T00:36:21;0.60;;;0.60;;
15555;SDS011;7879;48.660;9.116;2022-12-18T00:38:53;0.80;;;0.80;;
15555;SDS011;7879;48.660;9.116;2022-12-18T00:41:21;0.70;;;0.70;;
15555;SDS011;7879;48.660;9.116;2022-12-18T00:44:07;0.80;;;0.80;;
15555;SDS011;7879;48.660;9.116;2022-12-18T00:46:36;0.60;;;0.60;;
15555;SDS011;7879;48.660;9.116;2022-12-18T00:49:02;0.60;;;0.60;;
15555;SDS011;7879;48.660;9.116;2022-12-18T00:51:29;0.80;;;0.80;;
15555;SDS011;7879;48.660;9.116;2022-12-18T00:53:56;0.60;;;0.60;;
15555;SDS011;7879;48.660;9.116;2022-12-18T00:56:23;0.80;;;0.80;;
15555;SDS011;7879;48.660;9.116;2022-12-18T00:58:50;0.60;;;0.60;;
15555;SDS011;7879;48.660;9.116;2022-12-18T01:01:17;0.75;;;0.75;;
15555;SDS011;7879;48.660;9.116;2022-12-18T01:03:45;0.60;;;0.60;;
15555;SDS011;7879;48.660;9.116;2022-12-18T01:06:13;0.77;;;0.77;;
15555;SDS011;7879;48.660;9.116;2022-12-18T01:08:41;0.60;;;0.60;;
15555;SDS011;7879;48.660;9.116;2022-12-18T01:11:09;0.80;;;0.80;;
15555;SDS011;7879;48.660;9.116;2022-12-18T01:13:40;0.60;;;0.60;;
15555;SDS011;7879;48.660;9.116;2022-12-18T01:16:08;0.80;;;0.80;;
15555;SDS011;7879;48.660;9.116;2022-12-18T01:18:38;0.60;;;0.60;;
15555;SDS011;7879;48.660;9.116;2022-12-18T01:21:09;0.70;;;0.70;;
15555;SDS011;7879;48.660;9.116;2022-12-18T01:23:37;0.70;;;0.70;;
15555;SDS011;7879;48.660;9.116;2022-12-18T01:26:08;0.50;;;0.50;;
15555;SDS011;7879;48.660;9.116;2022-12-18T01:28:37;0.70;;;0.70;;
15555;SDS011;7879;48.660;9.116;2022-12-18T01:31:13;0.50;;;0.50;;
15555;SDS011;7879;48.660;9.116;2022-12-18T01:33:42;0.63;;;0.63;;
15555;SDS011;7879;48.660;9.116;2022-12-18T01:36:14;0.52;;;0.52;;
15555;SDS011;7879;48.660;9.116;2022-12-18T01:38:42;0.73;;;0.73;;
15555;SDS011;7879;48.660;9.116;2022-12-18T01:41:09;0.60;;;0.60;;
15555;SDS011;7879;48.660;9.116;2022-12-18T01:43:43;0.70;;;0.70;;
15555;SDS011;7879;48.660;9.116;2022-12-18T01:46:16;0.60;;;0.60;;
15555;SDS011;7879;48.660;9.116;2022-12-18T01:48:44;0.70;;;0.70;;
15555;SDS011;7879;48.660;9.116;2022-12-18T01:51:14;0.60;;;0.60;;
15555;SDS011;7879;48.660;9.116;2022-12-18T01:53:41;0.80;;;0.80;;
15555;SDS011;7879;48.660;9.116;2022-12-18T01:56:11;0.60;;;0.60;;
15555;SDS011;7879;48.660;9.116;2022-12-18T01:58:43;0.70;;;0.70;;
15555;SDS011;7879;48.660;9.116;2022-12-18T02:01:14;0.70;;;0.70;;
15555;SDS011;7879;48.660;9.116;2022-12-18T02:03:44;0.60;;;0.60;;
15555;SDS011;7879;48.660;9.116;2022-12-18T02:08:57;0.50;;;0.50;;
15555;SDS011;7879;48.660;9.116;2022-12-18T02:19:32;0.60;;;0.60;;
15555;SDS011;7879;48.660;9.116;2022-12-18T02:22:24;0.63;;;0.63;;
15555;SDS011;7879;48.660;9.116;2022-12-18T02:27:38;0.70;;;0.70;;
15555;SDS011;7879;48.660;9.116;2022-12-18T02:30:07;0.50;;;0.50;;
15555;SDS011;7879;48.660;9.116;2022-12-18T02:32:35;0.70;;;0.70;;
15555;SDS011;7879;48.660;9.116;2022-12-18T02:35:06;0.60;;;0.60;;
15555;SDS011;7879;48.660;9.116;2022-12-18T02:37:38;0.70;;;0.70;;
15555;SDS011;7879;48.660;9.116;2022-12-18T02:40:07;0.50;;;0.50;;
15555;SDS011;7879;48.660;9.116;2022-12-18T02:42:35;0.70;;;0.70;;
15555;SDS011;7879;48.660;9.116;2022-12-18T02:45:05;0.50;;;0.50;;
15555;SDS011;7879;48.660;9.116;2022-12-18T02:47:32;0.80;;;0.80;;
15555;SDS011;7879;48.660;9.116;2022-12-18T02:52:45;0.80;;;0.80;;
15555;SDS011;7879;48.660;9.116;2022-12-18T02:58:43;0.80;;;0.80;;
15555;SDS011;7879;48.660;9.116;2022-12-18T03:04:03;0.70;;;0.70;;
15555;SDS011;7879;48.660;9.116;2022-12-18T03:06:41;0.50;;;0.50;;
15555;SDS011;7879;48.660;9.116;2022-12-18T03:09:14;0.70;;;0.70;;
15555;SDS011;7879;48.660;9.116;2022-12-18T03:11:53;0.60;;;0.60;;
15555;SDS011;7879;48.660;9.116;2022-12-18T03:14:41;0.77;;;0.77;;
15555;SDS011;7879;48.660;9.116;2022-12-18T03:17:12;0.60;;;0.60;;
15555;SDS011;7879;48.660;9.116;2022-12-18T03:19:44;0.80;;;0.80;;
15555;SDS011;7879;48.660;9.116;2022-12-18T03:22:13;0.60;;;0.60;;
15555;SDS011;7879;48.660;9.116;2022-12-18T03:24:42;0.73;;;0.73;;
15555;SDS011;7879;48.660;9.116;2022-12-18T03:27:12;0.63;;;0.63;;
15555;SDS011;7879;48.660;9.116;2022-12-18T03:29:47;0.60;;;0.60;;
15555;SDS011;7879;48.660;9.116;2022-12-18T03:32:25;0.70;;;0.70;;
15555;SDS011;7879;48.660;9.116;2022-12-18T03:35:10;0.57;;;0.57;;
15555;SDS011;7879;48.660;9.116;2022-12-18T03:37:40;0.60;;;0.60;;
15555;SDS011;7879;48.660;9.116;2022-12-18T03:40:09;0.50;;;0.50;;
15555;SDS011;7879;48.660;9.116;2022-12-18T03:42:38;0.70;;;0.70;;
15555;SDS011;7879;48.660;9.116;2022-12-18T03:45:22;0.60;;;0.60;;
15555;SDS011;7879;48.660;9.116;2022-12-18T03:48:10;0.70;;;0.70;;
15555;SDS011;7879;48.660;9.116;2022-12-18T03:50:53;0.60;;;0.60;;
15555;SDS011;7879;48.660;9.116;2022-12-18T03:56:02;0.60;;;0.60;;
15555;SDS011;7879;48.660;9.116;2022-12-18T03:58:31;0.70;;;0.70;;
15555;SDS011;7879;48.660;9.116;2022-12-18T04:01:01;0.63;;;0.63;;
15555;SDS011;7879;48.660;9.116;2022-12-18T04:03:33;0.70;;;0.70;;
15555;SDS011;7879;48.660;9.116;2022-12-18T04:06:02;0.60;;;0.60;;
15555;SDS011;7879;48.660;9.116;2022-12-18T04:08:30;0.80;;;0.80;;
15555;SDS011;7879;48.660;9.116;2022-12-18T04:10:57;0.60;;;0.60;;
15555;SDS011;7879;48.660;9.116;2022-12-18T04:13:29;0.80;;;0.80;;
15555;SDS011;7879;48.660;9.116;2022-12-18T04:15:59;0.60;;;0.60;;
15555;SDS011;7879;48.660;9.116;2022-12-18T04:18:26;0.80;;;0.80;;
15555;SDS011;7879;48.660;9.116;2022-12-18T04:20:53;0.63;;;0.63;;
15555;SDS011;7879;48.660;9.116;2022-12-18T04:23:20;0.80;;;0.80;;
15555;SDS011;7879;48.660;9.116;2022-12-18T04:25:48;0.70;;;0.70;;
15555;SDS011;7879;48.660;9.116;2022-12-18T04:28:15;0.70;;;0.70;;
15555;SDS011;7879;48.660;9.116;2022-12-18T04:30:41;0.70;;;0.70;;
15555;SDS011;7879;48.660;9.116;2022-12-18T04:33:11;0.80;;;0.80;;
15555;SDS011;7879;48.660;9.116;2022-12-18T04:35:39;0.60;;;0.60;;
15555;SDS011;7879;48.660;9.116;2022-12-18T04:38:07;0.60;;;0.60;;
15555;SDS011;7879;48.660;9.116;2022-12-18T04:40:36;0.65;;;0.65;;
15555;SDS011;7879;48.660;9.116;2022-12-18T04:43:04;0.60;;;0.60;;
15555;SDS011;7879;48.660;9.116;2022-12-18T04:45:31;0.80;;;0.80;;
15555;SDS011;7879;48.660;9.116;2022-12-18T04:47:59;0.60;;;0.60;;
15555;SDS011;7879;48.660;9.116;2022-12-18T04:50:26;0.60;;;0.60;;
15555;SDS011;7879;48.660;9.116;2022-12-18T04:52:53;0.80;;;0.80;;
15555;SDS011;7879;48.660;9.116;2022-12-18T04:55:20;0.70;;;0.70;;
15555;SDS011;7879;48.660;9.116;2022-12-18T04:57:50;0.63;;;0.63;;
15555;SDS011;7879;48.660;9.116;2022-12-18T05:00:17;0.73;;;0.73;;
15555;SDS011;7879;48.660;9.116;2022-12-18T05:02:44;0.50;;;0.50;;
15555;SDS011;7879;48.660;9.116;2022-12-18T05:05:11;0.73;;;0.73;;
15555;SDS011;7879;48.660;9.116;2022-12-18T05:07:38;0.60;;;0.60;;
15555;SDS011;7879;48.660;9.116;2022-12-18T05:10:08;0.60;;;0.60;;
15555;SDS011;7879;48.660;9.116;2022-12-18T05:12:35;0.60;;;0.60;;
15555;SDS011;7879;48.660;9.116;2022-12-18T05:15:22;0.70;;;0.70;;
15555;SDS011;7879;48.660;9.116;2022-12-18T05:17:49;0.60;;;0.60;;
15555;SDS011;7879;48.660;9.116;2022-12-18T05:20:16;0.80;;;0.80;;
15555;SDS011;7879;48.660;9.116;2022-12-18T05:22:44;0.60;;;0.60;;
15555;SDS011;7879;48.660;9.116;2022-12-18T05:25:11;0.80;;;0.80;;
15555;SDS011;7879;48.660;9.116;2022-12-18T05:27:37;0.60;;;0.60;;
15555;SDS011;7879;48.660;9.116;2022-12-18T05:30:04;0.60;;;0.60;;
15555;SDS011;7879;48.660;9.116;2022-12-18T05:32:31;0.80;;;0.80;;
15555;SDS011;7879;48.660;9.116;2022-12-18T05:34:58;0.60;;;0.60;;
15555;SDS011;7879;48.660;9.116;2022-12-18T05:37:25;0.80;;;0.80;;
15555;SDS011;7879;48.660;9.116;2022-12-18T05:39:52;0.60;;;0.60;;
15555;SDS011;7879;48.660;9.116;2022-12-18T05:42:19;0.80;;;0.80;;
15555;SDS011;7879;48.660;9.116;2022-12-18T05:44:45;0.70;;;0.70;;
15555;SDS011;7879;48.660;9.116;2022-12-18T05:47:12;0.60;;;0.60;;
15555;SDS011;7879;48.660;9.116;2022-12-18T05:49:39;0.70;;;0.70;;
15555;SDS011;7879;48.660;9.116;2022-12-18T05:52:06;0.60;;;0.60;;
15555;SDS011;7879;48.660;9.116;2022-12-18T05:54:33;0.80;;;0.80;;
15555;SDS011;7879;48.660;9.116;2022-12-18T05:56:59;0.60;;;0.60;;
15555;SDS011;7879;48.660;9.116;2022-12-18T05:59:26;0.80;;;0.80;;
15555;SDS011;7879;48.660;9.116;2022-12-18T06:01:53;0.70;;;0.70;;
15555;SDS011;7879;48.660;9.116;2022-12-18T06:04:20;0.60;;;0.60;;
15555;SDS011;7879;48.660;9.116;2022-12-18T06:06:47;0.70;;;0.70;;
15555;SDS011;7879;48.660;9.116;2022-12-18T06:09:13;0.60;;;0.60;;
15555;SDS011;7879;48.660;9.116;2022-12-18T06:11:40;0.70;;;0.70;;
15555;SDS011;7879;48.660;9.116;2022-12-18T06:14:07;0.50;;;0.50;;
15555;SDS011;7879;48.660;9.116;2022-12-18T06:16:35;0.80;;;0.80;;
15555;SDS011;7879;48.660;9.116;2022-12-18T06:19:04;0.60;;;0.60;;
15555;SDS011;7879;48.660;9.116;2022-12-18T06:21:32;0.80;;;0.80;;
15555;SDS011;7879;48.660;9.116;2022-12-18T06:24:00;0.70;;;0.70;;
15555;SDS011;7879;48.660;9.116;2022-12-18T06:26:27;0.60;;;0.60;;
15555;SDS011;7879;48.660;9.116;2022-12-18T06:28:54;0.70;;;0.70;;
15555;SDS011;7879;48.660;9.116;2022-12-18T06:31:20;0.50;;;0.50;;
15555;SDS011;7879;48.660;9.116;2022-12-18T06:33:47;0.80;;;0.80;;
15555;SDS011;7879;48.660;9.116;2022-12-18T06:36:14;0.60;;;0.60;;
15555;SDS011;7879;48.660;9.116;2022-12-18T06:38:43;0.80;;;0.80;;
15555;SDS011;7879;48.660;9.116;2022-12-18T06:41:13;0.70;;;0.70;;
15555;SDS011;7879;48.660;9.116;2022-12-18T06:43:42;0.70;;;0.70;;
15555;SDS011;7879;48.660;9.116;2022-12-18T06:46:10;0.70;;;0.70;;
15555;SDS011;7879;48.660;9.116;2022-12-18T06:48:37;0.50;;;0.50;;
15555;SDS011;7879;48.660;9.116;2022-12-18T06:51:05;0.70;;;0.70;;
15555;SDS011;7879;48.660;9.116;2022-12-18T06:53:32;0.60;;;0.60;;
15555;SDS011;7879;48.660;9.116;2022-12-18T06:56:00;0.70;;;0.70;;
15555;SDS011;7879;48.660;9.116;2022-12-18T06:58:35;0.60;;;0.60;;
15555;SDS011;7879;48.660;9.116;2022-12-18T07:01:02;0.80;;;0.80;;
15555;SDS011;7879;48.660;9.116;2022-12-18T07:03:31;0.68;;;0.68;;
15555;SDS011;7879;48.660;9.116;2022-12-18T07:05:58;0.60;;;0.60;;
15555;SDS011;7879;48.660;9.116;2022-12-18T07:08:25;0.70;;;0.70;;
15555;SDS011;7879;48.660;9.116;2022-12-18T07:10:52;0.60;;;0.60;;
15555;SDS011;7879;48.660;9.116;2022-12-18T07:13:21;0.80;;;0.80;;
15555;SDS011;7879;48.660;9.116;2022-12-18T07:15:48;0.70;;;0.70;;
15555;SDS011;7879;48.660;9.116;2022-12-18T07:18:15;0.80;;;0.80;;
15555;SDS011;7879;48.660;9.116;2022-12-18T07:20:42;0.70;;;0.70;;
15555;SDS011;7879;48.660;9.116;2022-12-18T07:23:11;0.70;;;0.70;;
15555;SDS011;7879;48.660;9.116;2022-12-18T07:25:37;0.70;;;0.70;;
15555;SDS011;7879;48.660;9.116;2022-12-18T07:28:05;0.52;;;0.52;;
15555;SDS011;7879;48.660;9.116;2022-12-18T07:30:36;0.77;;;0.77;;
15555;SDS011;7879;48.660;9.116;2022-12-18T07:33:03;0.60;;;0.60;;
15555;SDS011;7879;48.660;9.116;2022-12-18T07:35:30;0.75;;;0.75;;
15555;SDS011;7879;48.660;9.116;2022-12-18T07:37:59;0.70;;;0.70;;
15555;SDS011;7879;48.660;9.116;2022-12-18T07:40:25;0.80;;;0.80;;
15555;SDS011;7879;48.660;9.116;2022-12-18T07:42:52;0.60;;;0.60;;
15555;SDS011;7879;48.660;9.116;2022-12-18T07:45:19;0.85;;;0.85;;
15555;SDS011;7879;48.660;9.116;2022-12-18T07:47:46;0.70;;;0.70;;
15555;SDS011;7879;48.660;9.116;2022-12-18T07:50:13;0.60;;;0.60;;
15555;SDS011;7879;48.660;9.116;2022-12-18T07:52:39;0.70;;;0.70;;
15555;SDS011;7879;48.660;9.116;2022-12-18T07:55:06;0.60;;;0.60;;
15555;SDS011;7879;48.660;9.116;2022-12-18T07:57:34;0.80;;;0.80;;
15555;SDS011;7879;48.660;9.116;2022-12-18T08:00:17;0.60;;;0.60;;
15555;SDS011;7879;48.660;9.116;2022-12-18T08:02:46;0.80;;;0.80;;
15555;SDS011;7879;48.660;9.116;2022-12-18T08:05:13;0.70;;;0.70;;
15555;SDS011;7879;48.660;9.116;2022-12-18T08:07:40;0.80;;;0.80;;
15555;SDS011;7879;48.660;9.116;2022-12-18T08:10:07;0.70;;;0.70;;
15555;SDS011;7879;48.660;9.116;2022-12-18T08:12:34;0.50;;;0.50;;
15555;SDS011;7879;48.660;9.116;2022-12-18T08:15:01;0.70;;;0.70;;
15555;SDS011;7879;48.660;9.116;2022-12-18T08:17:28;0.57;;;0.57;;
15555;SDS011;7879;48.660;9.116;2022-12-18T08:19:55;0.70;;;0.70;;
15555;SDS011;7879;48.660;9.116;2022-12-18T08:22:22;0.60;;;0.60;;
15555;SDS011;7879;48.660;9.116;2022-12-18T08:24:48;0.70;;;0.70;;
15555;SDS011;7879;48.660;9.116;2022-12-18T08:27:15;0.60;;;0.60;;
15555;SDS011;7879;48.660;9.116;2022-12-18T08:29:57;0.70;;;0.70;;
15555;SDS011;7879;48.660;9.116;2022-12-18T08:32:25;0.50;;;0.50;;
15555;SDS011;7879;48.660;9.116;2022-12-18T08:34:53;0.70;;;0.70;;
15555;SDS011;7879;48.660;9.116;2022-12-18T08:37:20;0.60;;;0.60;;
15555;SDS011;7879;48.660;9.116;2022-12-18T08:39:46;0.80;;;0.80;;
15555;SDS011;7879;48.660;9.116;2022-12-18T08:42:13;0.60;;;0.60;;
15555;SDS011;7879;48.660;9.116;2022-12-18T08:44:58;0.70;;;0.70;;
15555;SDS011;7879;48.660;9.116;2022-12-18T08:47:25;0.60;;;0.60;;
15555;SDS011;7879;48.660;9.116;2022-12-18T08:49:52;0.70;;;0.70;;
15555;SDS011;7879;48.660;9.116;2022-12-18T08:52:19;0.60;;;0.60;;
15555;SDS011;7879;48.660;9.116;2022-12-18T08:54:45;0.60;;;0.60;;
15555;SDS011;7879;48.660;9.116;2022-12-18T08:57:12;0.50;;;0.50;;
15555;SDS011;7879;48.660;9.116;2022-12-18T08:59:39;0.60;;;0.60;;
15555;SDS011;7879;48.660;9.116;2022-12-18T09:02:06;0.57;;;0.57;;
15555;SDS011;7879;48.660;9.116;2022-12-18T09:04:34;0.60;;;0.60;;
15555;SDS011;7879;48.660;9.116;2022-12-18T09:07:01;0.60;;;0.60;;
15555;SDS011;7879;48.660;9.116;2022-12-18T09:09:28;0.70;;;0.70;;
15555;SDS011;7879;48.660;9.116;2022-12-18T09:11:54;0.50;;;0.50;;
15555;SDS011;7879;48.660;9.116;2022-12-18T09:14:21;0.60;;;0.60;;
15555;SDS011;7879;48.660;9.116;2022-12-18T09:16:48;0.40;;;0.40;;
15555;SDS011;7879;48.660;9.116;2022-12-18T09:19:15;0.40;;;0.40;;
15555;SDS011;7879;48.660;9.116;2022-12-18T09:21:41;0.47;;;0.47;;
15555;SDS011;7879;48.660;9.116;2022-12-18T09:24:16;0.30;;;0.30;;
15555;SDS011;7879;48.660;9.116;2022-12-18T09:26:43;0.30;;;0.30;;
15555;SDS011;7879;48.660;9.116;2022-12-18T09:29:12;0.20;;;0.20;;
15555;SDS011;7879;48.660;9.116;2022-12-18T09:31:41;0.20;;;0.20;;
15555;SDS011;7879;48.660;9.116;2022-12-18T09:34:08;0.30;;;0.30;;
15555;SDS011;7879;48.660;9.116;2022-12-18T09:36:35;0.30;;;0.30;;
15555;SDS011;7879;48.660;9.116;2022-12-18T09:39:02;0.30;;;0.30;;
15555;SDS011;7879;48.660;9.116;2022-12-18T09:41:41;0.20;;;0.20;;
15555;SDS011;7879;48.660;9.116;2022-12-18T09:49:45;0.20;;;0.20;;
15555;SDS011;7879;48.660;9.116;2022-12-18T09:52:21;0.20;;;0.20;;
15555;SDS011;7879;48.660;9.116;2022-12-18T09:55:00;0.10;;;0.10;;
15555;SDS011;7879;48.660;9.116;2022-12-18T09:57:50;0.10;;;0.10;;
15555;SDS011;7879;48.660;9.116;2022-12-18T10:00:21;0.10;;;0.10;;
15555;SDS011;7879;48.660;9.116;2022-12-18T10:02:51;0.10;;;0.10;;
15555;SDS011;7879;48.660;9.116;2022-12-18T10:05:23;0.10;;;0.10;;
15555;SDS011;7879;48.660;9.116;2022-12-18T10:14:00;0.10;;;0.10;;
15555;SDS011;7879;48.660;9.116;2022-12-18T10:19:23;0.10;;;0.10;;
15555;SDS011;7879;48.660;9.116;2022-12-18T10:25:25;0.10;;;0.10;;
15555;SDS011;7879;48.660;9.116;2022-12-18T10:28:17;0.10;;;0.10;;
15555;SDS011;7879;48.660;9.116;2022-12-18T10:30:45;0.10;;;0.10;;
15555;SDS011;7879;48.660;9.116;2022-12-18T10:33:22;0.10;;;0.10;;
15555;SDS011;7879;48.660;9.116;2022-12-18T10:35:51;0.10;;;0.10;;
15555;SDS011;7879;48.660;9.116;2022-12-18T10:40:53;0.10;;;0.10;;
15555;SDS011;7879;48.660;9.116;2022-12-18T10:43:38;0.10;;;0.10;;
15555;SDS011;7879;48.660;9.116;2022-12-18T10:51:05;0.10;;;0.10;;
15555;SDS011;7879;48.660;9.116;2022-12-18T10:53:37;0.10;;;0.10;;
15555;SDS011;7879;48.660;9.116;2022-12-18T10:56:07;0.10;;;0.10;;
15555;SDS011;7879;48.660;9.116;2022-12-18T10:58:35;0.10;;;0.10;;
15555;SDS011;7879;48.660;9.116;2022-12-18T11:01:05;0.10;;;0.10;;
15555;SDS011;7879;48.660;9.116;2022-12-18T11:03:36;0.10;;;0.10;;
15555;SDS011;7879;48.660;9.116;2022-12-18T11:06:14;0.10;;;0.10;;
15555;SDS011;7879;48.660;9.116;2022-12-18T11:08:46;0.10;;;0.10;;
15555;SDS011;7879;48.660;9.116;2022-12-18T11:11:31;0.10;;;0.10;;
15555;SDS011;7879;48.660;9.116;2022-12-18T11:16:29;0.10;;;0.10;;
15555;SDS011;7879;48.660;9.116;2022-12-18T11:19:09;0.10;;;0.10;;
15555;SDS011;7879;48.660;9.116;2022-12-18T11:21:50;0.10;;;0.10;;
15555;SDS011;7879;48.660;9.116;2022-12-18T11:24:23;0.10;;;0.10;;
15555;SDS011;7879;48.660;9.116;2022-12-18T11:26:52;0.10;;;0.10;;
15555;SDS011;7879;48.660;9.116;2022-12-18T11:29:28;0.10;;;0.10;;
15555;SDS011;7879;48.660;9.116;2022-12-18T11:34:51;0.10;;;0.10;;
15555;SDS011;7879;48.660;9.116;2022-12-18T11:37:59;0.10;;;0.10;;
15555;SDS011;7879;48.660;9.116;2022-12-18T11:40:36;0.10;;;0.10;;
15555;SDS011;7879;48.660;9.116;2022-12-18T11:43:09;0.10;;;0.10;;
15555;SDS011;7879;48.660;9.116;2022-12-18T11:46:05;0.10;;;0.10;;
15555;SDS011;7879;48.660;9.116;2022-12-18T11:48:52;0.10;;;0.10;;
15555;SDS011;7879;48.660;9.116;2022-12-18T11:51:48;0.10;;;0.10;;
15555;SDS011;7879;48.660;9.116;2022-12-18T11:54:20;0.10;;;0.10;;
15555;SDS011;7879;48.660;9.116;2022-12-18T11:56:55;0.20;;;0.20;;
15555;SDS011;7879;48.660;9.116;2022-12-18T11:59:51;0.10;;;0.10;;
15555;SDS011;7879;48.660;9.116;2022-12-18T12:07:46;0.20;;;0.20;;
15555;SDS011;7879;48.660;9.116;2022-12-18T12:10:53;0.30;;;0.30;;
15555;SDS011;7879;48.660;9.116;2022-12-18T12:16:28;0.20;;;0.20;;
15555;SDS011;7879;48.660;9.116;2022-12-18T12:21:51;0.40;;;0.40;;
15555;SDS011;7879;48.660;9.116;2022-12-18T12:24:36;0.40;;;0.40;;
15555;SDS011;7879;48.660;9.116;2022-12-18T12:30:06;0.40;;;0.40;;
15555;SDS011;7879;48.660;9.116;2022-12-18T12:33:02;0.40;;;0.40;;
15555;SDS011;7879;48.660;9.116;2022-12-18T12:38:15;0.40;;;0.40;;
15555;SDS011;7879;48.660;9.116;2022-12-18T12:40:57;0.40;;;0.40;;
15555;SDS011;7879;48.660;9.116;2022-12-18T12:46:17;0.30;;;0.30;;
15555;SDS011;7879;48.660;9.116;2022-12-18T12:51:30;0.30;;;0.30;;
15555;SDS011;7879;48.660;9.116;2022-12-18T12:54:05;0.30;;;0.30;;
15555;SDS011;7879;48.660;9.116;2022-12-18T12:56:40;0.30;;;0.30;;
15555;SDS011;7879;48.660;9.116;2022-12-18T12:59:12;0.30;;;0.30;;
15555;SDS011;7879;48.660;9.116;2022-12-18T13:04:57;0.30;;;0.30;;
15555;SDS011;7879;48.660;9.116;2022-12-18T13:07:56;0.30;;;0.30;;
15555;SDS011;7879;48.660;9.116;2022-12-18T13:10:32;0.30;;;0.30;;
15555;SDS011;7879;48.660;9.116;2022-12-18T13:13:23;0.30;;;0.30;;
15555;SDS011;7879;48.660;9.116;2022-12-18T13:16:06;0.30;;;0.30;;
15555;SDS011;7879;48.660;9.116;2022-12-18T13:18:34;0.30;;;0.30;;
15555;SDS011;7879;48.660;9.116;2022-12-18T13:23:48;0.30;;;0.30;;
15555;SDS011;7879;48.660;9.116;2022-12-18T13:28:54;0.40;;;0.40;;
15555;SDS011;7879;48.660;9.116;2022-12-18T13:36:53;0.40;;;0.40;;
15555;SDS011;7879;48.660;9.116;2022-12-18T13:39:23;0.40;;;0.40;;
15555;SDS011;7879;48.660;9.116;2022-12-18T13:44:38;0.40;;;0.40;;
15555;SDS011;7879;48.660;9.116;2022-12-18T13:49:57;0.30;;;0.30;;
15555;SDS011;7879;48.660;9.116;2022-12-18T13:52:25;0.30;;;0.30;;
15555;SDS011;7879;48.660;9.116;2022-12-18T13:55:02;0.50;;;0.50;;
15555;SDS011;7879;48.660;9.116;2022-12-18T13:57:33;0.40;;;0.40;;
15555;SDS011;7879;48.660;9.116;2022-12-18T14:00:23;0.30;;;0.30;;
15555;SDS011;7879;48.660;9.116;2022-12-18T14:02:52;0.30;;;0.30;;
15555;SDS011;7879;48.660;9.116;2022-12-18T14:05:22;0.40;;;0.40;;
15555;SDS011;7879;48.660;9.116;2022-12-18T14:08:01;0.40;;;0.40;;
15555;SDS011;7879;48.660;9.116;2022-12-18T14:10:32;0.40;;;0.40;;
15555;SDS011;7879;48.660;9.116;2022-12-18T14:13:17;0.40;;;0.40;;
15555;SDS011;7879;48.660;9.116;2022-12-18T14:15:49;0.50;;;0.50;;
15555;SDS011;7879;48.660;9.116;2022-12-18T14:20:49;0.30;;;0.30;;
15555;SDS011;7879;48.660;9.116;2022-12-18T14:25:57;0.40;;;0.40;;
15555;SDS011;7879;48.660;9.116;2022-12-18T14:28:31;0.40;;;0.40;;
15555;SDS011;7879;48.660;9.116;2022-12-18T14:30:58;0.40;;;0.40;;
15555;SDS011;7879;48.660;9.116;2022-12-18T14:33:26;0.38;;;0.38;;
15555;SDS011;7879;48.660;9.116;2022-12-18T14:35:54;0.30;;;0.30;;
15555;SDS011;7879;48.660;9.116;2022-12-18T14:38:34;0.40;;;0.40;;
15555;SDS011;7879;48.660;9.116;2022-12-18T14:41:15;0.40;;;0.40;;
15555;SDS011;7879;48.660;9.116;2022-12-18T14:43:44;0.50;;;0.50;;
15555;SDS011;7879;48.660;9.116;2022-12-18T14:52:06;0.40;;;0.40;;
15555;SDS011;7879;48.660;9.116;2022-12-18T14:54:54;0.40;;;0.40;;
15555;SDS011;7879;48.660;9.116;2022-12-18T14:57:22;0.40;;;0.40;;
15555;SDS011;7879;48.660;9.116;2022-12-18T14:59:52;0.50;;;0.50;;
15555;SDS011;7879;48.660;9.116;2022-12-18T15:02:22;0.40;;;0.40;;
15555;SDS011;7879;48.660;9.116;2022-12-18T15:05:02;0.38;;;0.38;;
15555;SDS011;7879;48.660;9.116;2022-12-18T15:07:50;0.40;;;0.40;;
15555;SDS011;7879;48.660;9.116;2022-12-18T15:10:19;0.50;;;0.50;;
15555;SDS011;7879;48.660;9.116;2022-12-18T15:26:17;0.38;;;0.38;;
15555;SDS011;7879;48.660;9.116;2022-12-18T15:36:22;0.40;;;0.40;;
15555;SDS011;7879;48.660;9.116;2022-12-18T15:38:53;0.40;;;0.40;;
15555;SDS011;7879;48.660;9.116;2022-12-18T15:41:31;0.50;;;0.50;;
15555;SDS011;7879;48.660;9.116;2022-12-18T15:44:01;0.60;;;0.60;;
15555;SDS011;7879;48.660;9.116;2022-12-18T15:46:29;0.40;;;0.40;;
15555;SDS011;7879;48.660;9.116;2022-12-18T15:48:57;0.40;;;0.40;;
15555;SDS011;7879;48.660;9.116;2022-12-18T15:51:28;0.55;;;0.55;;
15555;SDS011;7879;48.660;9.116;2022-12-18T15:54:02;0.40;;;0.40;;
15555;SDS011;7879;48.660;9.116;2022-12-18T15:56:32;0.40;;;0.40;;
15555;SDS011;7879;48.660;9.116;2022-12-18T15:59:18;0.50;;;0.50;;
15555;SDS011;7879;48.660;9.116;2022-12-18T16:01:47;0.60;;;0.60;;
15555;SDS011;7879;48.660;9.116;2022-12-18T16:04:16;0.40;;;0.40;;
15555;SDS011;7879;48.660;9.116;2022-12-18T16:06:48;0.50;;;0.50;;
15555;SDS011;7879;48.660;9.116;2022-12-18T16:09:35;0.60;;;0.60;;
15555;SDS011;7879;48.660;9.116;2022-12-18T16:12:03;0.40;;;0.40;;
15555;SDS011;7879;48.660;9.116;2022-12-18T16:14:30;0.40;;;0.40;;
15555;SDS011;7879;48.660;9.116;2022-12-18T16:16:58;0.50;;;0.50;;
15555;SDS011;7879;48.660;9.116;2022-12-18T16:19:27;0.50;;;0.50;;
15555;SDS011;7879;48.660;9.116;2022-12-18T16:21:55;0.40;;;0.40;;
15555;SDS011;7879;48.660;9.116;2022-12-18T16:24:24;0.43;;;0.43;;
15555;SDS011;7879;48.660;9.116;2022-12-18T16:26:53;0.50;;;0.50;;
15555;SDS011;7879;48.660;9.116;2022-12-18T16:29:25;0.40;;;0.40;;
15555;SDS011;7879;48.660;9.116;2022-12-18T16:31:54;0.50;;;0.50;;
15555;SDS011;7879;48.660;9.116;2022-12-18T16:36:57;0.40;;;0.40;;
15555;SDS011;7879;48.660;9.116;2022-12-18T16:39:31;0.43;;;0.43;;
15555;SDS011;7879;48.660;9.116;2022-12-18T16:42:01;0.60;;;0.60;;
15555;SDS011;7879;48.660;9.116;2022-12-18T16:44:31;0.40;;;0.40;;
15555;SDS011;7879;48.660;9.116;2022-12-18T16:46:59;0.50;;;0.50;;
15555;SDS011;7879;48.660;9.116;2022-12-18T16:49:28;0.60;;;0.60;;
15555;SDS011;7879;48.660;9.116;2022-12-18T16:51:55;0.40;;;0.40;;
15555;SDS011;7879;48.660;9.116;2022-12-18T16:54:22;0.50;;;0.50;;
15555;SDS011;7879;48.660;9.116;2022-12-18T16:56:50;0.60;;;0.60;;
15555;SDS011;7879;48.660;9.116;2022-12-18T16:59:17;0.40;;;0.40;;
15555;SDS011;7879;48.660;9.116;2022-12-18T17:01:45;0.50;;;0.50;;
15555;SDS011;7879;48.660;9.116;2022-12-18T17:06:47;0.45;;;0.45;;
15555;SDS011;7879;48.660;9.116;2022-12-18T17:09:17;0.50;;;0.50;;
15555;SDS011;7879;48.660;9.116;2022-12-18T17:11:52;0.50;;;0.50;;
15555;SDS011;7879;48.660;9.116;2022-12-18T17:14:21;0.40;;;0.40;;
15555;SDS011;7879;48.660;9.116;2022-12-18T17:16:49;0.40;;;0.40;;
15555;SDS011;7879;48.660;9.116;2022-12-18T17:19:36;0.50;;;0.50;;
15555;SDS011;7879;48.660;9.116;2022-12-18T17:22:03;0.45;;;0.45;;
15555;SDS011;7879;48.660;9.116;2022-12-18T17:24:30;0.40;;;0.40;;
15555;SDS011;7879;48.660;9.116;2022-12-18T17:27:00;0.50;;;0.50;;
15555;SDS011;7879;48.660;9.116;2022-12-18T17:29:28;0.50;;;0.50;;
15555;SDS011;7879;48.660;9.116;2022-12-18T17:31:55;0.40;;;0.40;;
15555;SDS011;7879;48.660;9.116;2022-12-18T17:34:25;0.50;;;0.50;;
15555;SDS011;7879;48.660;9.116;2022-12-18T17:36:52;0.50;;;0.50;;
15555;SDS011;7879;48.660;9.116;2022-12-18T17:39:19;0.40;;;0.40;;